createdAt,value
2022-08-18T00:01:40.617Z,99.90
2022-08-18T00:04:16.940Z,99.90
2022-08-18T00:06:56.540Z,99.90
2022-08-18T00:09:23.194Z,99.90
2022-08-18T00:11:50.047Z,99.90
2022-08-18T00:14:22.675Z,99.90
2022-08-18T00:16:52.857Z,99.90
2022-08-18T00:19:20.309Z,99.90
2022-08-18T00:22:07.595Z,99.90
2022-08-18T00:24:34.937Z,99.90
2022-08-18T00:27:02.014Z,99.90
2022-08-18T00:29:28.741Z,99.90
2022-08-18T00:31:55.395Z,99.90
2022-08-18T00:34:22.082Z,99.90
2022-08-18T00:36:50.091Z,99.90
2022-08-18T00:39:17.044Z,99.90
2022-08-18T00:41:43.666Z,99.90
2022-08-18T00:44:11.118Z,99.90
2022-08-18T00:46:38.116Z,99.90
2022-08-18T00:49:05.882Z,99.90
2022-08-18T00:51:44.747Z,99.90
2022-08-18T00:54:27.219Z,99.90
2022-08-18T00:56:56.980Z,99.90
2022-08-18T00:59:29.326Z,99.90
2022-08-18T01:02:02.641Z,99.90
2022-08-18T01:04:38.491Z,99.90
2022-08-18T01:07:18.071Z,99.90
2022-08-18T01:09:44.737Z,99.90
2022-08-18T01:12:13.011Z,99.90
2022-08-18T01:14:58.589Z,99.90
2022-08-18T01:17:45.743Z,99.90
2022-08-18T01:20:37.633Z,99.90
2022-08-18T01:23:09.742Z,99.90
2022-08-18T01:25:56.914Z,99.90
2022-08-18T01:28:23.811Z,99.90
2022-08-18T01:30:53.163Z,99.90
2022-08-18T01:33:19.861Z,99.90
2022-08-18T01:35:49.434Z,99.90
2022-08-18T01:38:19.014Z,99.90
2022-08-18T01:41:24.380Z,99.90
2022-08-18T01:43:35.997Z,99.90
2022-08-18T01:46:04.246Z,99.90
2022-08-18T01:48:34.586Z,99.90
2022-08-18T01:51:04.236Z,99.90
2022-08-18T01:53:31.339Z,99.90
2022-08-18T01:55:58.009Z,99.90
2022-08-18T01:58:31.449Z,99.90
2022-08-18T02:01:01.818Z,99.90
2022-08-18T02:03:42.697Z,99.90
2022-08-18T02:06:12.009Z,99.90
2022-08-18T02:08:43.710Z,99.90
2022-08-18T02:11:13.321Z,99.90
2022-08-18T02:13:40.423Z,99.90
2022-08-18T02:16:07.640Z,99.90
2022-08-18T02:18:46.930Z,99.90
2022-08-18T02:21:19.272Z,99.90
2022-08-18T02:23:53.703Z,99.90
2022-08-18T02:26:21.360Z,99.90
2022-08-18T02:28:48.020Z,99.90
2022-08-18T02:31:17.752Z,99.90
2022-08-18T02:33:51.638Z,99.90
2022-08-18T02:36:20.601Z,99.90
2022-08-18T02:38:54.805Z,99.90
2022-08-18T02:41:29.401Z,99.90
2022-08-18T02:43:57.404Z,99.90
2022-08-18T02:46:24.957Z,99.90
2022-08-18T02:48:57.246Z,99.90
2022-08-18T02:51:25.668Z,99.90
2022-08-18T02:53:53.881Z,99.90
2022-08-18T02:56:40.704Z,99.90
2022-08-18T02:59:12.304Z,99.90
2022-08-18T03:01:42.327Z,99.90
2022-08-18T03:04:11.566Z,99.90
2022-08-18T03:06:39.201Z,99.90
2022-08-18T03:09:07.854Z,99.90
2022-08-18T03:11:34.998Z,99.90
2022-08-18T03:14:02.226Z,99.90
2022-08-18T03:16:32.755Z,99.90
2022-08-18T03:19:01.032Z,99.90
2022-08-18T03:21:29.909Z,99.90
2022-08-18T03:24:01.380Z,99.90
2022-08-18T03:26:31.440Z,99.90
2022-08-18T03:28:59.959Z,99.90
2022-08-18T03:31:28.577Z,99.90
2022-08-18T03:33:59.133Z,99.90
2022-08-18T03:36:31.746Z,99.90
2022-08-18T03:39:01.616Z,99.90
2022-08-18T03:41:43.782Z,99.90
2022-08-18T03:44:15.861Z,99.90
2022-08-18T03:46:44.483Z,99.90
2022-08-18T03:49:12.180Z,99.90
2022-08-18T03:51:40.906Z,99.90
2022-08-18T03:54:07.606Z,99.90
2022-08-18T03:56:38.226Z,99.90
2022-08-18T03:59:23.469Z,99.90
2022-08-18T04:01:53.951Z,99.90
2022-08-18T04:04:26.965Z,99.90
2022-08-18T04:06:59.924Z,99.90
2022-08-18T04:09:29.592Z,99.90
2022-08-18T04:11:57.576Z,99.90
2022-08-18T04:14:30.454Z,99.90
2022-08-18T04:16:58.194Z,99.90
2022-08-18T04:19:26.744Z,99.90
2022-08-18T04:21:56.143Z,99.90
2022-08-18T04:24:23.172Z,99.90
2022-08-18T04:26:50.113Z,99.90
2022-08-18T04:29:19.597Z,99.90
2022-08-18T04:31:46.642Z,99.90
2022-08-18T04:34:13.772Z,99.90
2022-08-18T04:36:41.696Z,99.90
2022-08-18T04:39:11.135Z,99.90
2022-08-18T04:41:39.467Z,99.90
2022-08-18T04:44:08.677Z,99.90
2022-08-18T04:46:39.997Z,99.90
2022-08-18T04:49:09.086Z,99.90
2022-08-18T04:52:34.863Z,99.90
2022-08-18T04:54:25.058Z,99.90
2022-08-18T04:56:51.954Z,99.90
2022-08-18T04:59:19.030Z,99.90
2022-08-18T05:01:48.070Z,99.90
2022-08-18T05:04:17.106Z,99.90
2022-08-18T05:06:45.049Z,99.90
2022-08-18T05:09:16.880Z,99.90
2022-08-18T05:11:50.579Z,99.90
2022-08-18T05:14:17.954Z,99.90
2022-08-18T05:16:48.482Z,99.90
2022-08-18T05:19:21.851Z,99.90
2022-08-18T05:21:52.325Z,99.90
2022-08-18T05:24:21.421Z,99.90
2022-08-18T05:26:48.939Z,99.90
2022-08-18T05:29:18.937Z,99.90
2022-08-18T05:31:46.239Z,99.90
2022-08-18T05:34:12.980Z,99.90
2022-08-18T05:36:48.411Z,99.90
2022-08-18T05:39:23.564Z,99.90
2022-08-18T05:41:52.183Z,99.90
2022-08-18T05:44:28.524Z,99.90
2022-08-18T05:47:00.077Z,99.90
2022-08-18T05:49:27.900Z,99.90
2022-08-18T05:52:06.060Z,99.90
2022-08-18T05:55:03.843Z,99.90
2022-08-18T05:57:42.015Z,99.90
2022-08-18T06:00:11.430Z,99.90
2022-08-18T06:02:47.219Z,99.90
2022-08-18T06:05:26.707Z,99.90
2022-08-18T06:08:15.431Z,99.90
2022-08-18T06:10:46.347Z,99.90
2022-08-18T06:13:13.810Z,99.90
2022-08-18T06:15:53.194Z,99.90
2022-08-18T06:18:33.726Z,99.90
2022-08-18T06:21:00.326Z,99.90
2022-08-18T06:23:47.453Z,99.90
2022-08-18T06:26:20.765Z,99.90
2022-08-18T06:29:00.795Z,99.90
2022-08-18T06:31:45.628Z,99.90
2022-08-18T06:34:42.239Z,99.90
2022-08-18T06:37:19.975Z,99.90
2022-08-18T06:39:52.243Z,99.90
2022-08-18T06:42:21.467Z,99.90
2022-08-18T06:44:52.871Z,99.90
2022-08-18T06:47:45.378Z,99.90
2022-08-18T06:50:25.964Z,99.90
2022-08-18T06:53:05.308Z,99.90
2022-08-18T06:55:41.055Z,99.90
2022-08-18T06:58:17.180Z,99.90
2022-08-18T07:00:55.153Z,99.90
2022-08-18T07:03:42.295Z,99.90
2022-08-18T07:06:20.618Z,99.90
2022-08-18T07:08:49.439Z,99.90
2022-08-18T07:11:24.457Z,99.90
2022-08-18T07:14:09.532Z,99.90
2022-08-18T07:16:57.708Z,99.90
2022-08-18T07:19:29.729Z,99.90
2022-08-18T07:22:08.226Z,99.90
2022-08-18T07:24:46.674Z,99.90
2022-08-18T07:27:39.621Z,99.90
2022-08-18T07:30:25.221Z,99.90
2022-08-18T07:33:13.153Z,99.90
2022-08-18T07:35:51.401Z,99.90
2022-08-18T07:38:43.458Z,99.90
2022-08-18T07:41:22.692Z,99.90
2022-08-18T07:43:52.534Z,99.90
2022-08-18T07:46:45.154Z,99.90
2022-08-18T07:49:21.985Z,99.90
2022-08-18T07:52:04.384Z,99.90
2022-08-18T07:54:56.074Z,99.90
2022-08-18T07:58:00.290Z,99.90
2022-08-18T08:01:00.605Z,99.90
2022-08-18T08:03:42.303Z,99.90
2022-08-18T08:06:31.364Z,99.90
2022-08-18T08:09:29.857Z,99.90
2022-08-18T08:11:58.536Z,99.90
2022-08-18T08:14:36.880Z,99.90
2022-08-18T08:17:42.887Z,99.90
2022-08-18T08:20:22.576Z,99.90
2022-08-18T08:23:04.744Z,99.90
2022-08-18T08:25:50.694Z,99.90
2022-08-18T08:28:26.519Z,99.90
2022-08-18T08:31:33.374Z,99.90
2022-08-18T08:34:22.450Z,99.90
2022-08-18T08:36:53.771Z,99.90
2022-08-18T08:39:36.303Z,99.90
2022-08-18T08:42:37.453Z,99.90
2022-08-18T08:45:21.001Z,99.90
2022-08-18T08:48:17.711Z,99.90
2022-08-18T08:50:55.538Z,99.90
2022-08-18T08:53:29.099Z,99.90
2022-08-18T08:56:02.539Z,99.90
2022-08-18T08:58:52.596Z,99.90
2022-08-18T09:01:55.920Z,99.90
2022-08-18T09:05:08.048Z,99.90
2022-08-18T09:07:50.538Z,99.90
2022-08-18T09:10:42.928Z,99.90
2022-08-18T09:13:41.771Z,99.90
2022-08-18T09:16:38.775Z,99.90
2022-08-18T09:19:31.697Z,99.90
2022-08-18T09:22:05.314Z,99.90
2022-08-18T09:24:45.728Z,99.90
2022-08-18T09:28:09.414Z,99.90
2022-08-18T09:33:44.004Z,99.90
2022-08-18T09:39:24.916Z,99.90
2022-08-18T09:41:58.401Z,99.90
2022-08-18T09:44:42.834Z,99.90
2022-08-18T09:47:10.153Z,99.90
2022-08-18T09:49:51.337Z,99.90
2022-08-18T09:52:37.330Z,99.90
2022-08-18T09:55:27.311Z,99.90
2022-08-18T09:58:34.964Z,99.90
2022-08-18T10:01:31.921Z,99.90
2022-08-18T10:04:14.026Z,99.90
2022-08-18T10:06:48.316Z,99.90
2022-08-18T10:09:36.699Z,99.90
2022-08-18T10:15:33.124Z,99.90
2022-08-18T10:18:06.579Z,99.90
2022-08-18T10:21:03.476Z,99.90
2022-08-18T10:26:38.229Z,99.90
2022-08-18T10:29:24.719Z,99.90
2022-08-18T10:31:58.514Z,99.90
2022-08-18T10:34:28.054Z,99.90
2022-08-18T10:37:01.662Z,99.90
2022-08-18T10:42:34.600Z,99.90
2022-08-18T10:45:36.473Z,99.90
2022-08-18T10:48:30.340Z,99.90
2022-08-18T10:51:21.424Z,99.90
2022-08-18T10:53:58.505Z,99.90
2022-08-18T10:56:49.797Z,99.90
2022-08-18T11:03:01.976Z,99.90
2022-08-18T11:08:20.357Z,99.90
2022-08-18T11:11:32.801Z,99.90
2022-08-18T11:13:47.032Z,99.90
2022-08-18T11:16:39.452Z,99.90
2022-08-18T11:19:14.310Z,99.90
2022-08-18T11:21:51.561Z,99.90
2022-08-18T11:24:24.792Z,99.90
2022-08-18T11:26:56.392Z,99.90
2022-08-18T11:29:37.002Z,99.90
2022-08-18T11:32:12.083Z,99.90
2022-08-18T11:34:52.899Z,99.90
2022-08-18T11:37:51.600Z,99.90
2022-08-18T11:43:23.869Z,99.90
2022-08-18T11:45:55.144Z,99.90
2022-08-18T11:48:39.054Z,99.90
2022-08-18T11:54:12.926Z,99.90
2022-08-18T11:56:39.805Z,99.90
2022-08-18T11:59:53.749Z,99.90
2022-08-18T12:02:21.126Z,99.90
2022-08-18T12:04:52.873Z,99.90
2022-08-18T12:07:42.128Z,99.90
2022-08-18T12:13:23.791Z,99.90
2022-08-18T12:16:13.006Z,99.90
2022-08-18T12:18:39.745Z,99.90
2022-08-18T12:21:10.134Z,99.90
2022-08-18T12:23:44.732Z,99.90
2022-08-18T12:29:03.190Z,99.90
2022-08-18T12:31:42.317Z,99.90
2022-08-18T12:34:14.958Z,99.90
2022-08-18T12:36:42.486Z,99.90
2022-08-18T12:39:10.418Z,99.90
2022-08-18T12:41:37.758Z,99.90
2022-08-18T12:44:04.838Z,99.90
2022-08-18T12:46:42.880Z,99.90
2022-08-18T12:49:17.275Z,99.90
2022-08-18T12:51:44.710Z,99.90
2022-08-18T12:54:12.601Z,99.90
2022-08-18T12:56:41.323Z,99.90
2022-08-18T12:59:09.974Z,99.90
2022-08-18T13:01:39.692Z,99.90
2022-08-18T13:04:12.708Z,99.90
2022-08-18T13:07:01.301Z,99.90
2022-08-18T13:09:35.112Z,99.90
2022-08-18T13:12:16.163Z,99.90
2022-08-18T13:14:43.752Z,99.90
2022-08-18T13:17:29.142Z,99.90
2022-08-18T13:19:59.483Z,99.90
2022-08-18T13:22:32.368Z,99.90
2022-08-18T13:25:01.587Z,99.90
2022-08-18T13:27:32.841Z,99.90
2022-08-18T13:30:30.370Z,99.90
2022-08-18T13:33:00.633Z,99.90
2022-08-18T13:35:30.000Z,99.40
2022-08-18T13:38:15.711Z,99.30
2022-08-18T13:40:50.302Z,98.80
2022-08-18T13:43:20.947Z,98.90
2022-08-18T13:45:53.181Z,98.20
2022-08-18T13:48:23.829Z,99.10
2022-08-18T13:50:52.996Z,99.80
2022-08-18T13:53:21.144Z,99.10
2022-08-18T13:55:48.473Z,97.50
2022-08-18T13:58:20.394Z,97.00
2022-08-18T14:00:51.544Z,97.70
2022-08-18T14:03:30.804Z,98.50
2022-08-18T14:06:06.202Z,99.10
2022-08-18T14:08:34.765Z,99.20
2022-08-18T14:11:03.422Z,99.60
2022-08-18T14:13:38.319Z,98.20
2022-08-18T14:16:10.999Z,97.80
2022-08-18T14:18:43.044Z,96.30
2022-08-18T14:21:30.936Z,96.20
2022-08-18T14:24:16.553Z,96.50
2022-08-18T14:26:50.895Z,96.30
2022-08-18T14:29:46.428Z,95.30
2022-08-18T14:32:06.862Z,95.60
2022-08-18T14:34:33.582Z,95.30
2022-08-18T14:37:00.217Z,94.20
2022-08-18T14:39:27.523Z,94.50
2022-08-18T14:41:55.741Z,95.20
2022-08-18T14:44:24.353Z,95.50
2022-08-18T14:46:54.230Z,96.30
2022-08-18T14:49:28.719Z,96.20
2022-08-18T14:51:57.770Z,96.30
2022-08-18T14:54:28.767Z,95.80
2022-08-18T14:56:57.334Z,95.20
2022-08-18T14:59:25.040Z,94.00
2022-08-18T15:01:52.369Z,93.50
2022-08-18T15:04:20.701Z,91.70
2022-08-18T15:06:56.076Z,90.90
2022-08-18T15:09:26.832Z,92.00
2022-08-18T15:11:55.848Z,92.70
2022-08-18T15:14:32.783Z,93.10
2022-08-18T15:17:12.016Z,93.70
2022-08-18T15:20:00.207Z,93.50
2022-08-18T15:22:46.099Z,94.20
2022-08-18T15:25:33.737Z,94.50
2022-08-18T15:28:01.001Z,95.10
2022-08-18T15:30:28.323Z,95.50
2022-08-18T15:32:55.344Z,95.40
2022-08-18T15:35:22.226Z,95.40
2022-08-18T15:37:51.040Z,95.20
2022-08-18T15:40:31.033Z,95.90
2022-08-18T15:43:06.831Z,96.30
2022-08-18T15:45:43.442Z,96.70
2022-08-18T15:48:25.042Z,96.90
2022-08-18T15:50:52.003Z,96.80
2022-08-18T15:53:30.120Z,97.00
2022-08-18T15:55:57.313Z,97.10
2022-08-18T15:58:26.796Z,97.10
2022-08-18T16:00:55.166Z,97.50
2022-08-18T16:03:21.894Z,97.60
2022-08-18T16:05:54.397Z,97.50
2022-08-18T16:08:23.808Z,97.70
2022-08-18T16:10:51.843Z,97.90
2022-08-18T16:13:19.198Z,97.90
2022-08-18T16:15:48.121Z,98.00
2022-08-18T16:18:16.302Z,98.20
2022-08-18T16:20:43.725Z,98.50
2022-08-18T16:23:14.170Z,98.60
2022-08-18T16:25:42.387Z,98.60
2022-08-18T16:28:09.793Z,98.70
2022-08-18T16:30:36.610Z,99.00
2022-08-18T16:33:06.369Z,99.10
2022-08-18T16:35:34.800Z,99.30
2022-08-18T16:38:04.800Z,99.10
2022-08-18T16:40:31.547Z,99.30
2022-08-18T16:43:00.514Z,99.60
2022-08-18T16:45:27.941Z,99.70
2022-08-18T16:47:55.622Z,99.70
2022-08-18T16:50:23.496Z,99.90
2022-08-18T16:52:50.155Z,99.90
2022-08-18T16:55:16.866Z,99.90
2022-08-18T16:58:02.289Z,99.90
2022-08-18T17:00:54.543Z,99.90
2022-08-18T17:03:41.823Z,99.90
2022-08-18T17:06:14.350Z,99.90
2022-08-18T17:08:42.307Z,99.90
2022-08-18T17:11:13.378Z,99.90
2022-08-18T17:13:41.644Z,99.90
2022-08-18T17:16:09.270Z,99.90
2022-08-18T17:18:36.886Z,99.90
2022-08-18T17:21:10.113Z,99.90
2022-08-18T17:23:38.793Z,99.90
2022-08-18T17:26:09.153Z,99.90
2022-08-18T17:28:50.620Z,99.90
2022-08-18T17:31:20.309Z,99.90
2022-08-18T17:33:46.977Z,99.90
2022-08-18T17:36:22.931Z,99.90
2022-08-18T17:38:53.214Z,99.90
2022-08-18T17:41:21.149Z,99.90
2022-08-18T17:43:48.102Z,99.90
2022-08-18T17:46:27.347Z,99.90
2022-08-18T17:48:57.143Z,99.90
2022-08-18T17:51:43.549Z,99.90
2022-08-18T17:54:32.246Z,99.90
2022-08-18T17:57:05.984Z,99.90
2022-08-18T17:59:45.564Z,99.90
2022-08-18T18:02:29.522Z,99.90
2022-08-18T18:04:59.134Z,99.90
2022-08-18T18:07:33.752Z,99.90
2022-08-18T18:10:08.817Z,99.90
2022-08-18T18:12:37.221Z,99.90
2022-08-18T18:15:13.305Z,99.90
2022-08-18T18:17:42.665Z,99.90
2022-08-18T18:20:37.982Z,99.90
2022-08-18T18:23:23.403Z,99.90
2022-08-18T18:25:50.448Z,99.90
2022-08-18T18:28:34.990Z,99.90
2022-08-18T18:31:26.796Z,99.90
2022-08-18T18:34:23.351Z,99.90
2022-08-18T18:36:56.009Z,99.90
2022-08-18T18:39:33.012Z,99.90
2022-08-18T18:42:17.423Z,99.90
2022-08-18T18:44:51.960Z,99.90
2022-08-18T18:47:42.492Z,99.90
2022-08-18T18:50:33.451Z,99.90
2022-08-18T18:53:29.899Z,99.90
2022-08-18T18:56:19.884Z,99.90
2022-08-18T18:59:03.433Z,99.90
2022-08-18T19:01:49.897Z,99.90
2022-08-18T19:04:28.829Z,99.90
2022-08-18T19:07:10.837Z,99.90
2022-08-18T19:09:50.305Z,99.90
2022-08-18T19:12:34.375Z,99.90
2022-08-18T19:15:14.597Z,99.90
2022-08-18T19:17:51.014Z,99.90
2022-08-18T19:20:20.929Z,99.90
2022-08-18T19:22:51.438Z,99.90
2022-08-18T19:25:25.907Z,99.90
2022-08-18T19:28:06.218Z,99.90
2022-08-18T19:30:36.926Z,99.90
2022-08-18T19:33:05.662Z,99.90
2022-08-18T19:36:00.375Z,99.90
2022-08-18T19:38:34.453Z,99.90
2022-08-18T19:41:10.915Z,99.90
2022-08-18T19:44:09.543Z,99.90
2022-08-18T19:46:57.161Z,99.90
2022-08-18T19:50:09.006Z,99.90
2022-08-18T19:52:50.731Z,99.90
2022-08-18T19:55:38.597Z,99.90
2022-08-18T19:58:23.711Z,99.90
2022-08-18T20:01:04.474Z,99.90
2022-08-18T20:03:47.406Z,99.90
2022-08-18T20:06:52.610Z,99.90
2022-08-18T20:09:25.425Z,99.90
2022-08-18T20:11:52.343Z,99.90
2022-08-18T20:14:20.626Z,99.90
2022-08-18T20:17:08.895Z,99.90
2022-08-18T20:19:47.652Z,99.90
2022-08-18T20:22:22.077Z,99.90
2022-08-18T20:24:59.470Z,99.90
2022-08-18T20:27:32.798Z,99.90
2022-08-18T20:30:17.391Z,99.90
2022-08-18T20:32:44.062Z,99.90
2022-08-18T20:35:24.426Z,99.90
2022-08-18T20:37:51.490Z,99.90
2022-08-18T20:40:44.617Z,99.90
2022-08-18T20:43:33.437Z,99.90
2022-08-18T20:46:40.234Z,99.90
2022-08-18T20:49:24.690Z,99.90
2022-08-18T20:52:04.201Z,99.90
2022-08-18T20:54:58.055Z,99.90
2022-08-18T20:57:29.033Z,99.90
2022-08-18T21:00:04.601Z,99.90
2022-08-18T21:02:41.137Z,99.90
2022-08-18T21:05:10.373Z,99.90
2022-08-18T21:08:13.111Z,99.90
2022-08-18T21:11:01.790Z,99.90
2022-08-18T21:13:28.531Z,99.90
2022-08-18T21:15:56.047Z,99.90
2022-08-18T21:18:24.039Z,99.90
2022-08-18T21:20:53.153Z,99.90
2022-08-18T21:23:33.543Z,99.90
2022-08-18T21:26:12.346Z,99.90
2022-08-18T21:28:42.119Z,99.90
2022-08-18T21:31:28.937Z,99.90
2022-08-18T21:34:28.777Z,99.90
2022-08-18T21:36:57.950Z,99.90
2022-08-18T21:39:25.409Z,99.90
2022-08-18T21:41:55.416Z,99.90
2022-08-18T21:44:29.996Z,99.90
2022-08-18T21:47:26.447Z,99.90
2022-08-18T21:50:15.263Z,99.90
2022-08-18T21:52:53.560Z,99.90
2022-08-18T21:55:24.085Z,99.90
2022-08-18T21:58:18.003Z,99.90
2022-08-18T22:01:10.746Z,99.90
2022-08-18T22:03:59.637Z,99.90
2022-08-18T22:06:40.389Z,99.90
2022-08-18T22:09:28.351Z,99.90
2022-08-18T22:12:44.826Z,99.90
2022-08-18T22:15:22.774Z,99.90
2022-08-18T22:17:51.772Z,99.90
2022-08-18T22:20:46.893Z,99.90
2022-08-18T22:23:31.924Z,99.90
2022-08-18T22:26:09.203Z,99.90
2022-08-18T22:28:45.359Z,99.90
2022-08-18T22:31:14.279Z,99.90
2022-08-18T22:33:42.342Z,99.90
2022-08-18T22:36:10.213Z,99.90
2022-08-18T22:38:36.863Z,99.90
2022-08-18T22:41:03.532Z,99.90
2022-08-18T22:43:30.152Z,99.90
2022-08-18T22:45:56.786Z,99.90
2022-08-18T22:48:23.430Z,99.90
2022-08-18T22:50:50.132Z,99.90
2022-08-18T22:53:18.069Z,99.90
2022-08-18T22:55:45.934Z,99.90
2022-08-18T22:58:13.044Z,99.90
2022-08-18T23:00:43.575Z,99.90
2022-08-18T23:03:10.427Z,99.90
2022-08-18T23:05:37.190Z,99.90
2022-08-18T23:08:04.085Z,99.90
2022-08-18T23:10:31.097Z,99.90
2022-08-18T23:13:02.198Z,99.90
2022-08-18T23:15:47.506Z,99.90
2022-08-18T23:18:19.782Z,99.90
2022-08-18T23:20:47.845Z,99.90
2022-08-18T23:23:16.366Z,99.90
2022-08-18T23:25:43.423Z,99.90
2022-08-18T23:28:10.978Z,99.90
2022-08-18T23:30:39.958Z,99.90
2022-08-18T23:33:10.413Z,99.90
2022-08-18T23:35:38.437Z,99.90
2022-08-18T23:38:07.906Z,99.90
2022-08-18T23:40:38.976Z,99.90
2022-08-18T23:43:06.819Z,99.90
2022-08-18T23:45:38.616Z,99.90
2022-08-18T23:48:06.877Z,99.90
2022-08-18T23:50:34.949Z,99.90
2022-08-18T23:53:04.803Z,99.90
2022-08-18T23:55:33.630Z,99.90
2022-08-18T23:58:00.583Z,99.90
